createdAt,value
2022-07-29T00:02:15.169Z,94.44
2022-07-29T00:04:45.514Z,94.79
2022-07-29T00:07:17.818Z,95.49
2022-07-29T00:09:51.784Z,95.53
2022-07-29T00:12:26.397Z,95.63
2022-07-29T00:14:57.389Z,95.05
2022-07-29T00:17:26.599Z,95.79
2022-07-29T00:19:55.890Z,94.91
2022-07-29T00:22:27.539Z,95.36
2022-07-29T00:24:58.557Z,95.07
2022-07-29T00:27:29.440Z,95.39
2022-07-29T00:30:00.127Z,96.14
2022-07-29T00:32:29.104Z,96.40
2022-07-29T00:35:16.147Z,94.98
2022-07-29T00:37:48.152Z,94.91
2022-07-29T00:40:18.788Z,95.12
2022-07-29T00:42:53.873Z,95.19
2022-07-29T00:45:25.243Z,95.41
2022-07-29T00:47:53.801Z,95.30
2022-07-29T00:50:24.312Z,95.15
2022-07-29T00:52:55.551Z,94.83
2022-07-29T00:55:26.707Z,94.35
2022-07-29T00:57:57.855Z,93.42
2022-07-29T01:00:33.494Z,93.05
2022-07-29T01:03:05.340Z,93.11
2022-07-29T01:05:50.008Z,93.33
2022-07-29T01:08:24.076Z,93.60
2022-07-29T01:10:54.781Z,94.02
2022-07-29T01:13:25.717Z,93.52
2022-07-29T01:16:00.876Z,93.80
2022-07-29T01:18:35.028Z,93.89
2022-07-29T01:21:20.794Z,93.57
2022-07-29T01:24:03.092Z,93.40
2022-07-29T01:26:41.419Z,93.88
2022-07-29T01:29:19.116Z,93.72
2022-07-29T01:31:59.187Z,94.21
2022-07-29T01:34:39.642Z,94.91
2022-07-29T01:37:15.015Z,95.15
2022-07-29T01:39:46.057Z,95.23
2022-07-29T01:42:22.363Z,95.60
2022-07-29T01:45:00.700Z,95.45
2022-07-29T01:47:43.504Z,95.72
2022-07-29T01:50:15.787Z,95.71
2022-07-29T01:52:50.251Z,95.70
2022-07-29T01:55:21.358Z,96.19
2022-07-29T01:57:52.074Z,95.81
2022-07-29T02:00:22.168Z,96.13
2022-07-29T02:02:54.094Z,96.29
2022-07-29T02:05:26.098Z,96.36
2022-07-29T02:08:00.762Z,95.81
2022-07-29T02:10:32.568Z,95.67
2022-07-29T02:13:04.076Z,95.33
2022-07-29T02:15:36.201Z,95.35
2022-07-29T02:18:11.274Z,95.77
2022-07-29T02:20:41.758Z,95.71
2022-07-29T02:23:14.379Z,95.39
2022-07-29T02:25:45.583Z,95.96
2022-07-29T02:28:15.897Z,97.45
2022-07-29T02:30:48.760Z,98.14
2022-07-29T02:33:19.827Z,98.69
2022-07-29T02:35:51.547Z,99.12
2022-07-29T02:38:39.579Z,99.50
2022-07-29T02:41:14.910Z,100.00
2022-07-29T02:43:46.348Z,100.00
2022-07-29T02:46:28.881Z,100.00
2022-07-29T02:49:03.659Z,100.00
2022-07-29T02:51:43.961Z,100.00
2022-07-29T02:54:24.517Z,98.94
2022-07-29T02:56:57.005Z,98.78
2022-07-29T02:59:29.141Z,98.05
2022-07-29T03:02:02.928Z,97.35
2022-07-29T03:04:35.084Z,97.67
2022-07-29T03:07:05.452Z,97.18
2022-07-29T03:09:35.600Z,96.96
2022-07-29T03:12:06.223Z,97.11
2022-07-29T03:14:36.637Z,96.76
2022-07-29T03:17:09.044Z,96.90
2022-07-29T03:19:39.499Z,96.49
2022-07-29T03:22:09.695Z,97.05
2022-07-29T03:24:40.322Z,96.82
2022-07-29T03:27:10.205Z,96.61
2022-07-29T03:29:40.931Z,97.12
2022-07-29T03:32:23.780Z,97.08
2022-07-29T03:34:53.568Z,97.63
2022-07-29T03:37:23.721Z,97.47
2022-07-29T03:39:53.727Z,97.66
2022-07-29T03:42:25.216Z,97.90
2022-07-29T03:44:56.210Z,98.44
2022-07-29T03:47:49.952Z,99.45
2022-07-29T03:50:20.975Z,100.00
2022-07-29T03:52:51.205Z,100.00
2022-07-29T03:55:22.679Z,100.00
2022-07-29T03:57:54.632Z,100.00
2022-07-29T04:00:25.523Z,100.00
2022-07-29T04:02:56.744Z,100.00
2022-07-29T04:05:28.037Z,100.00
2022-07-29T04:07:58.074Z,99.59
2022-07-29T04:10:30.308Z,99.90
2022-07-29T04:13:01.812Z,98.92
2022-07-29T04:15:33.670Z,98.77
2022-07-29T04:18:05.340Z,97.76
2022-07-29T04:20:36.918Z,98.59
2022-07-29T04:23:05.472Z,98.50
2022-07-29T04:25:34.707Z,98.67
2022-07-29T04:28:04.867Z,98.58
2022-07-29T04:30:36.563Z,99.26
2022-07-29T04:33:09.359Z,99.57
2022-07-29T04:35:47.050Z,99.40
2022-07-29T04:38:24.313Z,99.35
2022-07-29T04:40:53.414Z,98.60
2022-07-29T04:43:24.530Z,97.94
2022-07-29T04:45:53.883Z,98.29
2022-07-29T04:48:28.654Z,99.69
2022-07-29T04:50:59.167Z,100.00
2022-07-29T04:53:30.498Z,100.00
2022-07-29T04:56:03.970Z,100.00
2022-07-29T04:58:36.764Z,100.00
2022-07-29T05:01:07.234Z,99.34
2022-07-29T05:03:38.289Z,98.06
2022-07-29T05:06:08.355Z,97.49
2022-07-29T05:08:38.817Z,96.48
2022-07-29T05:11:14.956Z,97.58
2022-07-29T05:13:47.207Z,98.20
2022-07-29T05:16:17.235Z,98.25
2022-07-29T05:18:49.159Z,99.29
2022-07-29T05:21:19.374Z,98.26
2022-07-29T05:23:49.509Z,98.17
2022-07-29T05:26:19.313Z,98.93
2022-07-29T05:28:49.559Z,98.88
2022-07-29T05:31:19.833Z,99.44
2022-07-29T05:33:51.485Z,98.79
2022-07-29T05:36:21.622Z,98.55
2022-07-29T05:38:53.355Z,98.30
2022-07-29T05:41:24.538Z,98.40
2022-07-29T05:43:53.506Z,98.19
2022-07-29T05:46:23.403Z,99.73
2022-07-29T05:48:54.092Z,100.00
2022-07-29T05:51:24.284Z,100.00
2022-07-29T05:53:53.396Z,100.00
2022-07-29T05:56:23.474Z,100.00
2022-07-29T05:58:52.552Z,100.00
2022-07-29T06:01:22.206Z,100.00
2022-07-29T06:03:54.308Z,100.00
2022-07-29T06:06:23.908Z,100.00
2022-07-29T06:08:52.282Z,100.00
2022-07-29T06:11:23.619Z,100.00
2022-07-29T06:13:52.355Z,100.00
2022-07-29T06:16:28.907Z,100.00
2022-07-29T06:19:02.271Z,100.00
2022-07-29T06:21:31.441Z,100.00
2022-07-29T06:24:01.815Z,100.00
2022-07-29T06:26:39.726Z,100.00
2022-07-29T06:29:12.204Z,100.00
2022-07-29T06:31:44.190Z,100.00
2022-07-29T06:34:15.720Z,100.00
2022-07-29T06:36:44.402Z,100.00
2022-07-29T06:39:14.789Z,100.00
2022-07-29T06:41:43.131Z,100.00
2022-07-29T06:44:15.139Z,100.00
2022-07-29T06:46:44.633Z,100.00
2022-07-29T06:49:15.116Z,100.00
2022-07-29T06:51:43.321Z,100.00
2022-07-29T06:54:11.886Z,100.00
2022-07-29T06:56:43.555Z,100.00
2022-07-29T06:59:14.892Z,100.00
2022-07-29T07:01:46.530Z,100.00
2022-07-29T07:04:18.289Z,100.00
2022-07-29T07:06:50.762Z,100.00
2022-07-29T07:09:20.710Z,100.00
2022-07-29T07:11:50.802Z,100.00
2022-07-29T07:14:21.051Z,100.00
2022-07-29T07:16:50.519Z,100.00
2022-07-29T07:19:25.230Z,100.00
2022-07-29T07:21:57.951Z,100.00
2022-07-29T07:24:40.333Z,100.00
2022-07-29T07:27:45.024Z,100.00
2022-07-29T07:30:47.059Z,100.00
2022-07-29T07:33:48.685Z,100.00
2022-07-29T07:37:01.073Z,100.00
2022-07-29T07:39:44.535Z,100.00
2022-07-29T07:42:17.926Z,100.00
2022-07-29T07:45:12.653Z,100.00
2022-07-29T07:48:13.599Z,100.00
2022-07-29T07:51:08.965Z,100.00
2022-07-29T07:53:51.157Z,100.00
2022-07-29T07:56:21.880Z,100.00
2022-07-29T07:58:52.523Z,100.00
2022-07-29T08:01:24.668Z,100.00
2022-07-29T08:03:53.828Z,100.00
2022-07-29T08:06:31.541Z,100.00
2022-07-29T08:09:27.750Z,100.00
2022-07-29T08:11:54.712Z,100.00
2022-07-29T08:14:41.333Z,100.00
2022-07-29T08:17:43.304Z,100.00
2022-07-29T08:20:15.286Z,100.00
2022-07-29T08:22:45.460Z,97.96
2022-07-29T08:25:21.984Z,99.61
2022-07-29T08:27:51.927Z,99.45
2022-07-29T08:30:23.086Z,99.19
2022-07-29T08:32:55.478Z,99.85
2022-07-29T08:35:26.013Z,99.20
2022-07-29T08:37:56.407Z,100.00
2022-07-29T08:40:33.853Z,100.00
2022-07-29T08:43:13.462Z,100.00
2022-07-29T08:45:48.747Z,100.00
2022-07-29T08:48:27.367Z,100.00
2022-07-29T08:51:02.409Z,100.00
2022-07-29T08:53:32.910Z,100.00
2022-07-29T08:56:05.013Z,100.00
2022-07-29T08:58:38.214Z,100.00
2022-07-29T09:01:12.513Z,100.00
2022-07-29T09:03:44.373Z,100.00
2022-07-29T09:06:16.919Z,100.00
2022-07-29T09:08:47.723Z,100.00
2022-07-29T09:11:19.256Z,99.81
2022-07-29T09:13:51.190Z,99.74
2022-07-29T09:16:43.711Z,99.03
2022-07-29T09:19:23.202Z,97.82
2022-07-29T09:22:03.472Z,97.00
2022-07-29T09:24:47.965Z,98.40
2022-07-29T09:27:28.791Z,97.21
2022-07-29T09:30:04.427Z,96.31
2022-07-29T09:32:36.230Z,96.46
2022-07-29T09:35:22.778Z,96.76
2022-07-29T09:37:51.707Z,95.93
2022-07-29T09:40:23.008Z,95.43
2022-07-29T09:42:54.679Z,95.12
2022-07-29T09:45:34.404Z,95.12
2022-07-29T09:48:17.435Z,94.84
2022-07-29T09:50:50.669Z,92.91
2022-07-29T09:53:34.677Z,92.24
2022-07-29T09:56:05.155Z,91.37
2022-07-29T09:58:37.382Z,90.62
2022-07-29T10:01:06.418Z,91.16
2022-07-29T10:03:52.991Z,89.67
2022-07-29T10:06:24.302Z,88.05
2022-07-29T10:08:53.639Z,87.56
2022-07-29T10:11:25.330Z,85.81
2022-07-29T10:14:21.239Z,83.67
2022-07-29T10:21:55.059Z,80.69
2022-07-29T10:24:27.508Z,76.97
2022-07-29T10:26:57.217Z,74.86
2022-07-29T10:29:26.140Z,73.61
2022-07-29T10:32:10.538Z,73.06
2022-07-29T10:34:51.318Z,71.82
2022-07-29T10:37:28.002Z,70.51
2022-07-29T10:40:25.915Z,68.13
2022-07-29T10:42:57.718Z,63.91
2022-07-29T10:45:26.228Z,62.67
2022-07-29T10:48:07.842Z,61.34
2022-07-29T10:50:57.835Z,61.55
2022-07-29T10:53:28.014Z,62.40
2022-07-29T10:56:06.364Z,63.07
2022-07-29T10:58:34.894Z,62.22
2022-07-29T11:01:37.178Z,64.70
2022-07-29T11:04:06.262Z,61.38
2022-07-29T11:07:09.274Z,62.57
2022-07-29T11:09:39.656Z,62.21
2022-07-29T11:12:49.079Z,62.44
2022-07-29T11:15:22.139Z,64.94
2022-07-29T11:18:07.751Z,64.06
2022-07-29T11:20:46.014Z,62.88
2022-07-29T11:23:33.433Z,62.40
2022-07-29T11:26:23.716Z,63.00
2022-07-29T11:28:56.104Z,61.42
2022-07-29T11:31:36.566Z,61.12
2022-07-29T11:34:28.056Z,58.85
2022-07-29T11:37:27.653Z,58.78
2022-07-29T11:40:15.294Z,62.15
2022-07-29T11:42:51.818Z,59.80
2022-07-29T11:45:41.660Z,60.86
2022-07-29T11:48:31.303Z,56.96
2022-07-29T11:51:01.650Z,57.33
2022-07-29T11:53:32.843Z,59.73
2022-07-29T11:56:02.535Z,59.45
2022-07-29T11:58:33.254Z,59.87
2022-07-29T12:01:04.881Z,60.62
2022-07-29T12:03:36.948Z,58.80
2022-07-29T12:06:15.089Z,59.54
2022-07-29T12:08:45.058Z,58.08
2022-07-29T12:11:20.831Z,56.64
2022-07-29T12:13:51.928Z,58.35
2022-07-29T12:16:25.819Z,55.70
2022-07-29T12:18:59.631Z,55.18
2022-07-29T12:21:28.705Z,54.12
2022-07-29T12:24:05.871Z,52.70
2022-07-29T12:26:40.340Z,49.30
2022-07-29T12:29:20.147Z,50.93
2022-07-29T12:32:02.466Z,50.11
2022-07-29T12:34:31.750Z,47.40
2022-07-29T12:37:00.045Z,47.32
2022-07-29T12:39:29.218Z,48.20
2022-07-29T12:42:04.165Z,48.08
2022-07-29T12:44:48.086Z,48.51
2022-07-29T12:47:16.961Z,51.49
2022-07-29T12:49:45.098Z,54.75
2022-07-29T12:52:26.835Z,56.61
2022-07-29T12:54:55.112Z,58.02
2022-07-29T12:57:23.495Z,59.74
2022-07-29T13:00:04.208Z,60.27
2022-07-29T13:02:32.776Z,61.71
2022-07-29T13:05:02.297Z,60.41
2022-07-29T13:08:29.490Z,61.80
2022-07-29T13:10:23.934Z,62.05
2022-07-29T13:13:07.173Z,60.75
2022-07-29T13:15:37.003Z,60.28
2022-07-29T13:18:05.979Z,59.11
2022-07-29T13:20:34.595Z,60.16
2022-07-29T13:23:03.149Z,57.96
2022-07-29T13:25:33.020Z,58.15
2022-07-29T13:28:01.647Z,56.63
2022-07-29T13:30:30.135Z,57.33
2022-07-29T13:32:59.917Z,57.74
2022-07-29T13:35:30.782Z,58.41
2022-07-29T13:37:59.008Z,56.42
2022-07-29T13:40:27.436Z,57.21
2022-07-29T13:42:55.616Z,57.41
2022-07-29T13:45:23.900Z,57.39
2022-07-29T13:47:52.125Z,57.27
2022-07-29T13:50:21.671Z,56.93
2022-07-29T13:52:51.480Z,56.35
2022-07-29T13:55:19.711Z,56.83
2022-07-29T13:57:48.593Z,56.59
2022-07-29T14:00:17.427Z,56.51
2022-07-29T14:02:46.807Z,57.60
2022-07-29T14:05:16.033Z,59.03
2022-07-29T14:07:46.532Z,59.72
2022-07-29T14:10:19.715Z,61.03
2022-07-29T14:12:48.188Z,60.16
2022-07-29T14:15:16.488Z,58.82
2022-07-29T14:17:44.755Z,58.66
2022-07-29T14:20:12.892Z,57.80
2022-07-29T14:22:42.684Z,57.97
2022-07-29T14:25:15.698Z,57.50
2022-07-29T14:27:44.707Z,55.57
2022-07-29T14:30:13.823Z,53.83
2022-07-29T14:32:42.107Z,53.94
2022-07-29T14:35:10.710Z,54.95
2022-07-29T14:37:40.280Z,53.43
2022-07-29T14:40:10.059Z,54.04
2022-07-29T14:42:39.990Z,53.23
2022-07-29T14:45:09.544Z,53.58
2022-07-29T14:47:38.223Z,53.31
2022-07-29T14:50:07.660Z,54.81
2022-07-29T14:52:35.865Z,55.27
2022-07-29T14:55:04.715Z,54.37
2022-07-29T14:57:33.270Z,54.23
2022-07-29T15:00:03.954Z,55.09
2022-07-29T15:02:59.460Z,56.19
2022-07-29T15:05:21.036Z,57.62
2022-07-29T15:07:50.280Z,58.87
2022-07-29T15:10:18.503Z,59.46
2022-07-29T15:12:47.233Z,60.04
2022-07-29T15:15:16.961Z,60.17
2022-07-29T15:17:45.249Z,59.91
2022-07-29T15:20:14.659Z,58.97
2022-07-29T15:22:44.017Z,59.10
2022-07-29T15:25:13.394Z,58.02
2022-07-29T15:27:43.220Z,57.28
2022-07-29T15:30:32.867Z,56.72
2022-07-29T15:33:02.164Z,58.59
2022-07-29T15:35:30.359Z,60.45
2022-07-29T15:37:58.562Z,62.20
2022-07-29T15:40:26.836Z,61.35
2022-07-29T15:42:55.387Z,58.35
2022-07-29T15:45:25.186Z,58.92
2022-07-29T15:47:53.449Z,58.90
2022-07-29T15:50:22.142Z,57.25
2022-07-29T15:52:50.373Z,57.46
2022-07-29T15:55:19.034Z,56.02
2022-07-29T15:57:47.381Z,55.72
2022-07-29T16:00:17.563Z,54.77
2022-07-29T16:02:47.248Z,55.73
2022-07-29T16:05:15.456Z,56.06
2022-07-29T16:07:44.550Z,56.84
2022-07-29T16:10:13.278Z,57.19
2022-07-29T16:12:41.934Z,57.13
2022-07-29T16:15:11.090Z,57.30
2022-07-29T16:17:39.982Z,57.29
2022-07-29T16:20:10.758Z,56.91
2022-07-29T16:22:42.030Z,56.88
2022-07-29T16:25:11.192Z,56.57
2022-07-29T16:27:39.611Z,58.12
2022-07-29T16:30:10.117Z,57.47
2022-07-29T16:32:38.403Z,58.22
2022-07-29T16:35:09.999Z,59.14
2022-07-29T16:37:39.242Z,59.76
2022-07-29T16:40:11.613Z,58.95
2022-07-29T16:42:47.737Z,58.97
2022-07-29T16:45:16.804Z,59.12
2022-07-29T16:47:46.280Z,59.43
2022-07-29T16:50:15.850Z,59.49
2022-07-29T16:52:44.097Z,59.52
2022-07-29T16:55:12.449Z,60.52
2022-07-29T16:57:42.163Z,60.57
2022-07-29T17:00:11.804Z,59.81
2022-07-29T17:02:40.450Z,59.27
2022-07-29T17:05:12.356Z,60.13
2022-07-29T17:07:43.014Z,61.56
2022-07-29T17:10:12.651Z,62.37
2022-07-29T17:12:41.841Z,62.22
2022-07-29T17:15:12.023Z,62.29
2022-07-29T17:17:55.104Z,62.09
2022-07-29T17:20:23.956Z,62.75
2022-07-29T17:22:54.019Z,64.09
2022-07-29T17:25:22.331Z,63.68
2022-07-29T17:27:50.932Z,68.77
2022-07-29T17:30:19.513Z,71.92
2022-07-29T17:32:47.988Z,75.18
2022-07-29T17:35:35.919Z,77.02
2022-07-29T17:38:05.626Z,78.86
2022-07-29T17:40:33.957Z,81.45
2022-07-29T17:43:02.295Z,81.85
2022-07-29T17:45:49.334Z,82.65
2022-07-29T17:48:19.180Z,82.76
2022-07-29T17:50:48.020Z,83.39
2022-07-29T17:53:18.514Z,83.97
2022-07-29T17:55:48.752Z,84.49
2022-07-29T17:58:17.540Z,84.92
2022-07-29T18:00:45.988Z,85.25
2022-07-29T18:03:14.244Z,85.80
2022-07-29T18:05:43.342Z,86.24
2022-07-29T18:08:13.743Z,87.71
2022-07-29T18:10:43.414Z,88.24
2022-07-29T18:13:12.833Z,88.69
2022-07-29T18:15:41.463Z,88.74
2022-07-29T18:18:10.093Z,88.81
2022-07-29T18:20:38.379Z,89.49
2022-07-29T18:23:06.596Z,89.86
2022-07-29T18:25:34.928Z,89.52
2022-07-29T18:28:05.652Z,89.91
2022-07-29T18:30:36.788Z,90.70
2022-07-29T18:33:20.904Z,91.79
2022-07-29T18:35:51.366Z,93.37
2022-07-29T18:38:19.906Z,93.82
2022-07-29T18:40:48.197Z,93.71
2022-07-29T18:43:17.754Z,93.85
2022-07-29T18:45:48.025Z,93.90
2022-07-29T18:48:16.357Z,94.72
2022-07-29T18:50:44.738Z,95.58
2022-07-29T18:53:12.869Z,97.08
2022-07-29T18:55:41.108Z,97.83
2022-07-29T18:58:09.251Z,98.89
2022-07-29T19:00:38.833Z,100.00
2022-07-29T19:03:07.085Z,100.00
2022-07-29T19:05:35.635Z,100.00
2022-07-29T19:08:03.913Z,100.00
2022-07-29T19:10:32.165Z,100.00
2022-07-29T19:13:00.518Z,100.00
2022-07-29T19:15:29.223Z,99.75
2022-07-29T19:18:01.107Z,99.38
2022-07-29T19:20:29.995Z,99.33
2022-07-29T19:22:58.593Z,99.82
2022-07-29T19:25:27.082Z,100.00
2022-07-29T19:27:56.454Z,100.00
2022-07-29T19:30:24.732Z,100.00
2022-07-29T19:32:53.125Z,100.00
2022-07-29T19:35:25.514Z,100.00
2022-07-29T19:37:54.286Z,100.00
2022-07-29T19:40:22.964Z,100.00
2022-07-29T19:42:51.828Z,100.00
2022-07-29T19:45:20.715Z,100.00
2022-07-29T19:47:49.423Z,100.00
2022-07-29T19:50:18.185Z,100.00
2022-07-29T19:52:48.248Z,100.00
2022-07-29T19:55:17.031Z,100.00
2022-07-29T19:57:47.756Z,100.00
2022-07-29T20:00:16.692Z,100.00
2022-07-29T20:02:45.007Z,100.00
2022-07-29T20:05:14.621Z,100.00
2022-07-29T20:07:43.838Z,100.00
2022-07-29T20:10:13.420Z,100.00
2022-07-29T20:12:42.737Z,100.00
2022-07-29T20:15:16.347Z,100.00
2022-07-29T20:17:44.913Z,100.00
2022-07-29T20:20:13.404Z,100.00
2022-07-29T20:22:41.690Z,100.00
2022-07-29T20:25:11.964Z,100.00
2022-07-29T20:27:42.804Z,100.00
2022-07-29T20:30:13.454Z,100.00
2022-07-29T20:32:42.269Z,100.00
2022-07-29T20:35:12.198Z,100.00
2022-07-29T20:37:52.263Z,100.00
2022-07-29T20:40:25.642Z,100.00
2022-07-29T20:42:55.793Z,100.00
2022-07-29T20:45:24.563Z,100.00
2022-07-29T20:47:53.033Z,100.00
2022-07-29T20:50:24.192Z,100.00
2022-07-29T20:52:53.331Z,100.00
2022-07-29T20:55:22.783Z,100.00
2022-07-29T20:57:53.186Z,100.00
2022-07-29T21:00:25.772Z,100.00
2022-07-29T21:02:54.298Z,100.00
2022-07-29T21:05:22.774Z,100.00
2022-07-29T21:07:53.386Z,100.00
2022-07-29T21:10:25.938Z,100.00
2022-07-29T21:12:54.303Z,100.00
2022-07-29T21:15:24.122Z,100.00
2022-07-29T21:18:00.347Z,100.00
2022-07-29T21:20:29.422Z,100.00
2022-07-29T21:22:58.287Z,100.00
2022-07-29T21:25:27.108Z,100.00
2022-07-29T21:28:13.032Z,100.00
2022-07-29T21:30:43.233Z,100.00
2022-07-29T21:33:12.789Z,100.00
2022-07-29T21:36:10.267Z,100.00
2022-07-29T21:38:30.222Z,100.00
2022-07-29T21:40:58.670Z,100.00
2022-07-29T21:43:29.524Z,100.00
2022-07-29T21:46:00.504Z,100.00
2022-07-29T21:48:29.510Z,100.00
2022-07-29T21:50:58.067Z,100.00
2022-07-29T21:53:28.155Z,100.00
2022-07-29T21:55:56.954Z,100.00
2022-07-29T21:58:25.291Z,100.00
2022-07-29T22:00:54.099Z,100.00
2022-07-29T22:03:24.642Z,100.00
2022-07-29T22:05:54.232Z,100.00
2022-07-29T22:08:22.403Z,100.00
2022-07-29T22:10:50.685Z,100.00
2022-07-29T22:13:18.944Z,100.00
2022-07-29T22:15:47.358Z,100.00
2022-07-29T22:18:20.669Z,100.00
2022-07-29T22:20:50.975Z,100.00
2022-07-29T22:23:19.147Z,100.00
2022-07-29T22:25:47.295Z,100.00
2022-07-29T22:28:15.479Z,100.00
2022-07-29T22:30:43.686Z,100.00
2022-07-29T22:33:17.468Z,100.00
2022-07-29T22:35:48.557Z,100.00
2022-07-29T22:38:18.946Z,100.00
2022-07-29T22:40:48.726Z,100.00
2022-07-29T22:43:18.965Z,100.00
2022-07-29T22:45:47.370Z,100.00
2022-07-29T22:48:15.687Z,100.00
2022-07-29T22:50:44.126Z,100.00
2022-07-29T22:53:12.395Z,100.00
2022-07-29T22:55:42.048Z,100.00
2022-07-29T22:58:10.404Z,100.00
2022-07-29T23:00:38.813Z,100.00
2022-07-29T23:03:07.108Z,100.00
2022-07-29T23:05:35.452Z,100.00
2022-07-29T23:08:03.750Z,100.00
2022-07-29T23:10:32.167Z,100.00
2022-07-29T23:13:01.742Z,100.00
2022-07-29T23:15:30.002Z,100.00
2022-07-29T23:17:58.827Z,100.00
2022-07-29T23:20:27.136Z,100.00
2022-07-29T23:22:55.351Z,100.00
2022-07-29T23:25:23.534Z,100.00
2022-07-29T23:27:51.732Z,100.00
2022-07-29T23:30:21.308Z,100.00
2022-07-29T23:32:51.844Z,100.00
2022-07-29T23:35:20.138Z,100.00
2022-07-29T23:37:48.740Z,100.00
2022-07-29T23:40:16.922Z,100.00
2022-07-29T23:42:45.303Z,100.00
2022-07-29T23:45:14.603Z,100.00
2022-07-29T23:47:44.215Z,100.00
2022-07-29T23:50:13.504Z,100.00
2022-07-29T23:52:42.262Z,100.00
2022-07-29T23:55:36.430Z,100.00
2022-07-29T23:57:59.709Z,100.00
